sensor_id;sensor_type;location;lat;lon;timestamp;pressure;altitude;pressure_sealevel;temperature;humidity
73633;BME280;61927;50.080;14.418;2022-07-06T00:01:43;99665.09;;;19.76;53.59
73633;BME280;61927;50.080;14.418;2022-07-06T00:04:09;99663.72;;;19.72;53.54
73633;BME280;61927;50.080;14.418;2022-07-06T00:06:35;99659.63;;;19.68;54.35
73633;BME280;61927;50.080;14.418;2022-07-06T00:09:00;99666.56;;;19.71;53.81
73633;BME280;61927;50.080;14.418;2022-07-06T00:11:26;99667.25;;;19.73;53.98
73633;BME280;61927;50.080;14.418;2022-07-06T00:13:52;99674.75;;;19.79;54.08
73633;BME280;61927;50.080;14.418;2022-07-06T00:16:18;99671.59;;;19.83;54.06
73633;BME280;61927;50.080;14.418;2022-07-06T00:18:45;99666.50;;;19.80;54.26
73633;BME280;61927;50.080;14.418;2022-07-06T00:21:11;99676.59;;;19.78;53.35
73633;BME280;61927;50.080;14.418;2022-07-06T00:23:36;99675.72;;;19.78;52.88
73633;BME280;61927;50.080;14.418;2022-07-06T00:26:02;99673.63;;;19.72;52.05
73633;BME280;61927;50.080;14.418;2022-07-06T00:28:28;99667.13;;;19.64;51.98
73633;BME280;61927;50.080;14.418;2022-07-06T00:30:54;99674.78;;;19.69;51.52
73633;BME280;61927;50.080;14.418;2022-07-06T00:33:20;99676.75;;;19.67;51.32
73633;BME280;61927;50.080;14.418;2022-07-06T00:35:47;99677.31;;;19.71;50.88
73633;BME280;61927;50.080;14.418;2022-07-06T00:38:12;99679.75;;;19.64;50.04
73633;BME280;61927;50.080;14.418;2022-07-06T00:40:38;99688.56;;;19.56;50.04
73633;BME280;61927;50.080;14.418;2022-07-06T00:43:03;99695.09;;;19.54;50.69
73633;BME280;61927;50.080;14.418;2022-07-06T00:45:29;99698.88;;;19.61;50.82
73633;BME280;61927;50.080;14.418;2022-07-06T00:47:55;99703.72;;;19.57;50.76
73633;BME280;61927;50.080;14.418;2022-07-06T00:50:21;99695.38;;;19.41;50.47
73633;BME280;61927;50.080;14.418;2022-07-06T00:52:49;99692.97;;;19.28;50.61
73633;BME280;61927;50.080;14.418;2022-07-06T00:55:18;99693.84;;;19.19;50.45
73633;BME280;61927;50.080;14.418;2022-07-06T00:57:44;99681.97;;;19.12;50.72
73633;BME280;61927;50.080;14.418;2022-07-06T01:00:12;99699.09;;;19.11;50.79
73633;BME280;61927;50.080;14.418;2022-07-06T01:02:38;99697.81;;;19.06;51.05
73633;BME280;61927;50.080;14.418;2022-07-06T01:05:04;99698.53;;;18.98;51.44
73633;BME280;61927;50.080;14.418;2022-07-06T01:07:31;99694.44;;;18.84;52.04
73633;BME280;61927;50.080;14.418;2022-07-06T01:09:57;99692.47;;;18.77;52.05
73633;BME280;61927;50.080;14.418;2022-07-06T01:12:23;99690.75;;;18.76;52.60
73633;BME280;61927;50.080;14.418;2022-07-06T01:14:49;99704.06;;;18.67;53.15
73633;BME280;61927;50.080;14.418;2022-07-06T01:17:15;99708.41;;;18.59;53.11
73633;BME280;61927;50.080;14.418;2022-07-06T01:19:41;99716.31;;;18.60;53.44
73633;BME280;61927;50.080;14.418;2022-07-06T01:22:08;99715.59;;;18.58;53.47
73633;BME280;61927;50.080;14.418;2022-07-06T01:24:37;99714.03;;;18.56;53.34
73633;BME280;61927;50.080;14.418;2022-07-06T01:27:04;99721.53;;;18.43;53.30
73633;BME280;61927;50.080;14.418;2022-07-06T01:29:31;99717.81;;;18.34;53.86
73633;BME280;61927;50.080;14.418;2022-07-06T01:31:57;99723.56;;;18.20;54.15
73633;BME280;61927;50.080;14.418;2022-07-06T01:34:23;99736.81;;;18.02;54.24
73633;BME280;61927;50.080;14.418;2022-07-06T01:36:48;99729.28;;;17.96;54.07
73633;BME280;61927;50.080;14.418;2022-07-06T01:39:14;99721.94;;;17.98;53.86
73633;BME280;61927;50.080;14.418;2022-07-06T01:41:40;99727.44;;;17.96;53.41
73633;BME280;61927;50.080;14.418;2022-07-06T01:44:06;99724.13;;;17.83;53.46
73633;BME280;61927;50.080;14.418;2022-07-06T01:46:32;99726.38;;;17.78;53.84
73633;BME280;61927;50.080;14.418;2022-07-06T01:48:58;99726.97;;;17.82;53.60
73633;BME280;61927;50.080;14.418;2022-07-06T01:51:24;99721.72;;;17.80;52.99
73633;BME280;61927;50.080;14.418;2022-07-06T01:53:51;99721.53;;;17.72;53.13
73633;BME280;61927;50.080;14.418;2022-07-06T01:56:17;99714.47;;;17.71;53.19
73633;BME280;61927;50.080;14.418;2022-07-06T01:58:44;99717.22;;;17.60;53.34
73633;BME280;61927;50.080;14.418;2022-07-06T02:01:16;99708.44;;;17.58;53.46
73633;BME280;61927;50.080;14.418;2022-07-06T02:03:42;99715.25;;;17.62;53.56
73633;BME280;61927;50.080;14.418;2022-07-06T02:06:08;99719.44;;;17.55;53.18
73633;BME280;61927;50.080;14.418;2022-07-06T02:08:35;99720.94;;;17.48;53.79
73633;BME280;61927;50.080;14.418;2022-07-06T02:11:02;99719.19;;;17.37;54.06
73633;BME280;61927;50.080;14.418;2022-07-06T02:13:28;99719.06;;;17.38;54.35
73633;BME280;61927;50.080;14.418;2022-07-06T02:15:53;99723.97;;;17.33;54.11
73633;BME280;61927;50.080;14.418;2022-07-06T02:18:19;99733.25;;;17.29;54.65
73633;BME280;61927;50.080;14.418;2022-07-06T02:20:44;99727.94;;;17.18;54.91
73633;BME280;61927;50.080;14.418;2022-07-06T02:23:10;99725.13;;;17.20;54.86
73633;BME280;61927;50.080;14.418;2022-07-06T02:25:35;99724.56;;;17.16;55.21
73633;BME280;61927;50.080;14.418;2022-07-06T02:28:01;99723.03;;;17.23;55.01
73633;BME280;61927;50.080;14.418;2022-07-06T02:30:26;99719.66;;;17.21;55.18
73633;BME280;61927;50.080;14.418;2022-07-06T02:32:52;99726.72;;;17.22;55.10
73633;BME280;61927;50.080;14.418;2022-07-06T02:35:17;99724.63;;;17.26;55.00
73633;BME280;61927;50.080;14.418;2022-07-06T02:37:43;99730.56;;;17.29;55.00
73633;BME280;61927;50.080;14.418;2022-07-06T02:40:09;99733.25;;;17.29;55.24
73633;BME280;61927;50.080;14.418;2022-07-06T02:42:35;99731.22;;;17.22;55.37
73633;BME280;61927;50.080;14.418;2022-07-06T02:45:00;99725.59;;;17.25;55.14
73633;BME280;61927;50.080;14.418;2022-07-06T02:47:26;99731.56;;;17.28;55.34
73633;BME280;61927;50.080;14.418;2022-07-06T02:49:52;99728.88;;;17.28;55.14
73633;BME280;61927;50.080;14.418;2022-07-06T02:52:18;99732.53;;;17.27;55.48
73633;BME280;61927;50.080;14.418;2022-07-06T02:54:44;99728.47;;;17.33;55.18
73633;BME280;61927;50.080;14.418;2022-07-06T02:57:09;99730.97;;;17.46;54.87
73633;BME280;61927;50.080;14.418;2022-07-06T02:59:35;99742.47;;;17.57;54.54
73633;BME280;61927;50.080;14.418;2022-07-06T03:02:05;99744.50;;;17.65;54.07
73633;BME280;61927;50.080;14.418;2022-07-06T03:04:31;99748.38;;;17.72;54.12
73633;BME280;61927;50.080;14.418;2022-07-06T03:06:57;99759.38;;;17.69;53.99
73633;BME280;61927;50.080;14.418;2022-07-06T03:09:23;99760.38;;;17.68;53.88
73633;BME280;61927;50.080;14.418;2022-07-06T03:11:48;99749.66;;;17.57;54.58
73633;BME280;61927;50.080;14.418;2022-07-06T03:14:14;99753.28;;;17.46;54.85
73633;BME280;61927;50.080;14.418;2022-07-06T03:16:39;99760.34;;;17.47;55.08
73633;BME280;61927;50.080;14.418;2022-07-06T03:19:05;99768.00;;;17.52;55.01
73633;BME280;61927;50.080;14.418;2022-07-06T03:21:30;99765.38;;;17.61;54.79
73633;BME280;61927;50.080;14.418;2022-07-06T03:23:56;99770.63;;;17.63;54.91
73633;BME280;61927;50.080;14.418;2022-07-06T03:26:21;99780.38;;;17.64;54.55
73633;BME280;61927;50.080;14.418;2022-07-06T03:28:47;99787.44;;;17.65;54.56
73633;BME280;61927;50.080;14.418;2022-07-06T03:31:12;99795.97;;;17.70;54.33
73633;BME280;61927;50.080;14.418;2022-07-06T03:33:38;99787.06;;;17.69;54.31
73633;BME280;61927;50.080;14.418;2022-07-06T03:36:04;99780.84;;;17.69;54.49
73633;BME280;61927;50.080;14.418;2022-07-06T03:38:30;99782.06;;;17.65;53.87
73633;BME280;61927;50.080;14.418;2022-07-06T03:40:56;99779.91;;;17.59;53.65
73633;BME280;61927;50.080;14.418;2022-07-06T03:43:22;99776.38;;;17.58;54.10
73633;BME280;61927;50.080;14.418;2022-07-06T03:45:47;99766.34;;;17.60;54.11
73633;BME280;61927;50.080;14.418;2022-07-06T03:48:13;99769.50;;;17.65;53.79
73633;BME280;61927;50.080;14.418;2022-07-06T03:50:38;99763.50;;;17.73;53.76
73633;BME280;61927;50.080;14.418;2022-07-06T03:53:04;99767.34;;;17.80;53.78
73633;BME280;61927;50.080;14.418;2022-07-06T03:55:30;99760.75;;;17.84;53.93
73633;BME280;61927;50.080;14.418;2022-07-06T03:57:55;99768.25;;;17.90;53.57
73633;BME280;61927;50.080;14.418;2022-07-06T04:00:21;99770.09;;;17.90;53.65
73633;BME280;61927;50.080;14.418;2022-07-06T04:02:47;99770.09;;;17.90;53.91
73633;BME280;61927;50.080;14.418;2022-07-06T04:05:12;99771.88;;;17.80;53.50
73633;BME280;61927;50.080;14.418;2022-07-06T04:07:38;99766.72;;;17.67;54.06
73633;BME280;61927;50.080;14.418;2022-07-06T04:10:03;99767.94;;;17.63;54.28
73633;BME280;61927;50.080;14.418;2022-07-06T04:12:29;99779.91;;;17.59;54.29
73633;BME280;61927;50.080;14.418;2022-07-06T04:14:57;99787.50;;;17.54;54.87
73633;BME280;61927;50.080;14.418;2022-07-06T04:17:23;99788.53;;;17.62;54.78
73633;BME280;61927;50.080;14.418;2022-07-06T04:20:09;99799.31;;;17.83;54.51
73633;BME280;61927;50.080;14.418;2022-07-06T04:22:38;99811.13;;;18.01;54.12
73633;BME280;61927;50.080;14.418;2022-07-06T04:25:04;99809.47;;;18.10;53.79
73633;BME280;61927;50.080;14.418;2022-07-06T04:27:30;99794.22;;;18.11;53.65
73633;BME280;61927;50.080;14.418;2022-07-06T04:29:56;99797.00;;;17.99;52.75
73633;BME280;61927;50.080;14.418;2022-07-06T04:32:21;99815.19;;;17.96;53.90
73633;BME280;61927;50.080;14.418;2022-07-06T04:34:47;99833.41;;;17.92;53.67
73633;BME280;61927;50.080;14.418;2022-07-06T04:37:12;99840.63;;;17.71;53.90
73633;BME280;61927;50.080;14.418;2022-07-06T04:39:37;99847.69;;;17.72;54.62
73633;BME280;61927;50.080;14.418;2022-07-06T04:42:03;99865.31;;;17.86;54.06
73633;BME280;61927;50.080;14.418;2022-07-06T04:44:29;99862.94;;;17.92;53.17
73633;BME280;61927;50.080;14.418;2022-07-06T04:46:54;99857.56;;;17.92;52.52
73633;BME280;61927;50.080;14.418;2022-07-06T04:49:20;99857.56;;;17.92;52.49
73633;BME280;61927;50.080;14.418;2022-07-06T04:51:45;99863.66;;;17.94;52.70
73633;BME280;61927;50.080;14.418;2022-07-06T04:54:11;99864.19;;;17.88;52.98
73633;BME280;61927;50.080;14.418;2022-07-06T04:56:36;99870.41;;;17.89;52.58
73633;BME280;61927;50.080;14.418;2022-07-06T04:59:02;99862.94;;;17.92;52.77
73633;BME280;61927;50.080;14.418;2022-07-06T05:01:27;99863.88;;;17.82;53.07
73633;BME280;61927;50.080;14.418;2022-07-06T05:03:53;99862.88;;;17.83;52.85
73633;BME280;61927;50.080;14.418;2022-07-06T05:06:18;99848.88;;;17.79;52.88
73633;BME280;61927;50.080;14.418;2022-07-06T05:08:45;99837.28;;;17.79;53.00
73633;BME280;61927;50.080;14.418;2022-07-06T05:11:11;99833.28;;;17.73;53.43
73633;BME280;61927;50.080;14.418;2022-07-06T05:13:36;99825.63;;;17.68;53.90
73633;BME280;61927;50.080;14.418;2022-07-06T05:16:02;99827.91;;;17.73;54.08
73633;BME280;61927;50.080;14.418;2022-07-06T05:18:28;99817.31;;;17.71;54.80
73633;BME280;61927;50.080;14.418;2022-07-06T05:20:53;99817.78;;;17.77;54.15
73633;BME280;61927;50.080;14.418;2022-07-06T05:23:19;99823.13;;;17.77;55.44
73633;BME280;61927;50.080;14.418;2022-07-06T05:25:44;99823.59;;;17.82;54.78
73633;BME280;61927;50.080;14.418;2022-07-06T05:28:10;99812.78;;;17.93;55.17
73633;BME280;61927;50.080;14.418;2022-07-06T05:30:36;99806.47;;;18.03;54.71
73633;BME280;61927;50.080;14.418;2022-07-06T05:33:01;99807.69;;;18.20;57.08
73633;BME280;61927;50.080;14.418;2022-07-06T05:35:28;99808.41;;;18.22;54.41
73633;BME280;61927;50.080;14.418;2022-07-06T05:37:54;99821.16;;;18.30;55.28
73633;BME280;61927;50.080;14.418;2022-07-06T05:40:19;99821.38;;;18.48;55.28
73633;BME280;61927;50.080;14.418;2022-07-06T05:42:45;99820.56;;;18.57;53.79
73633;BME280;61927;50.080;14.418;2022-07-06T05:45:10;99825.63;;;18.50;53.35
73633;BME280;61927;50.080;14.418;2022-07-06T05:47:36;99832.16;;;18.57;53.50
73633;BME280;61927;50.080;14.418;2022-07-06T05:50:20;99831.00;;;18.50;53.91
73633;BME280;61927;50.080;14.418;2022-07-06T05:52:56;99839.22;;;18.18;53.91
73633;BME280;61927;50.080;14.418;2022-07-06T05:55:22;99832.28;;;18.16;54.75
73633;BME280;61927;50.080;14.418;2022-07-06T05:57:48;99829.91;;;18.22;54.08
73633;BME280;61927;50.080;14.418;2022-07-06T06:00:15;99825.00;;;18.37;53.90
73633;BME280;61927;50.080;14.418;2022-07-06T06:02:42;99826.63;;;18.49;52.63
73633;BME280;61927;50.080;14.418;2022-07-06T06:05:09;99845.72;;;18.56;52.81
73633;BME280;61927;50.080;14.418;2022-07-06T06:07:36;99842.34;;;18.54;52.48
73633;BME280;61927;50.080;14.418;2022-07-06T06:10:04;99846.84;;;18.53;52.86
73633;BME280;61927;50.080;14.418;2022-07-06T06:12:30;99851.47;;;18.72;52.50
73633;BME280;61927;50.080;14.418;2022-07-06T06:14:55;99853.91;;;18.75;51.90
73633;BME280;61927;50.080;14.418;2022-07-06T06:17:21;99860.50;;;18.61;52.63
73633;BME280;61927;50.080;14.418;2022-07-06T06:19:46;99865.19;;;18.38;52.56
73633;BME280;61927;50.080;14.418;2022-07-06T06:22:13;99862.19;;;18.32;52.53
73633;BME280;61927;50.080;14.418;2022-07-06T06:24:38;99867.72;;;18.40;52.75
73633;BME280;61927;50.080;14.418;2022-07-06T06:27:04;99862.81;;;18.45;53.12
73633;BME280;61927;50.080;14.418;2022-07-06T06:29:29;99864.25;;;18.49;52.23
73633;BME280;61927;50.080;14.418;2022-07-06T06:31:55;99875.31;;;18.56;52.89
73633;BME280;61927;50.080;14.418;2022-07-06T06:34:21;99880.28;;;18.60;53.00
73633;BME280;61927;50.080;14.418;2022-07-06T06:36:46;99876.66;;;18.71;52.53
73633;BME280;61927;50.080;14.418;2022-07-06T06:39:12;99882.03;;;18.71;52.67
73633;BME280;61927;50.080;14.418;2022-07-06T06:41:37;99880.81;;;18.85;52.19
73633;BME280;61927;50.080;14.418;2022-07-06T06:44:03;99889.94;;;19.13;51.96
73633;BME280;61927;50.080;14.418;2022-07-06T06:46:28;99892.97;;;19.39;51.89
73633;BME280;61927;50.080;14.418;2022-07-06T06:48:54;99893.56;;;19.52;51.26
73633;BME280;61927;50.080;14.418;2022-07-06T06:51:19;99889.28;;;19.49;50.87
73633;BME280;61927;50.080;14.418;2022-07-06T06:53:46;99878.84;;;19.56;51.13
73633;BME280;61927;50.080;14.418;2022-07-06T06:56:12;99879.41;;;19.69;50.94
73633;BME280;61927;50.080;14.418;2022-07-06T06:58:37;99878.38;;;19.89;49.79
73633;BME280;61927;50.080;14.418;2022-07-06T07:01:03;99878.38;;;19.99;49.68
73633;BME280;61927;50.080;14.418;2022-07-06T07:03:30;99878.50;;;20.07;49.04
73633;BME280;61927;50.080;14.418;2022-07-06T07:05:56;99883.00;;;20.16;48.72
73633;BME280;61927;50.080;14.418;2022-07-06T07:08:21;99874.38;;;20.13;48.69
73633;BME280;61927;50.080;14.418;2022-07-06T07:10:47;99875.22;;;20.13;48.65
73633;BME280;61927;50.080;14.418;2022-07-06T07:13:13;99864.31;;;20.15;48.66
73633;BME280;61927;50.080;14.418;2022-07-06T07:15:38;99877.91;;;20.13;47.69
73633;BME280;61927;50.080;14.418;2022-07-06T07:18:04;99871.28;;;19.98;47.45
73633;BME280;61927;50.080;14.418;2022-07-06T07:20:29;99869.19;;;19.82;47.77
73633;BME280;61927;50.080;14.418;2022-07-06T07:22:56;99875.00;;;19.78;48.38
73633;BME280;61927;50.080;14.418;2022-07-06T07:25:22;99878.53;;;19.78;48.58
73633;BME280;61927;50.080;14.418;2022-07-06T07:27:47;99873.16;;;19.78;47.16
73633;BME280;61927;50.080;14.418;2022-07-06T07:30:13;99878.69;;;19.67;45.64
73633;BME280;61927;50.080;14.418;2022-07-06T07:32:38;99876.69;;;19.50;45.76
73633;BME280;61927;50.080;14.418;2022-07-06T07:35:07;99879.94;;;19.44;46.30
73633;BME280;61927;50.080;14.418;2022-07-06T07:37:33;99876.09;;;19.46;45.84
73633;BME280;61927;50.080;14.418;2022-07-06T07:39:59;99869.88;;;19.46;44.54
73633;BME280;61927;50.080;14.418;2022-07-06T07:42:25;99867.59;;;19.51;46.01
73633;BME280;61927;50.080;14.418;2022-07-06T07:44:50;99867.91;;;19.67;46.11
73633;BME280;61927;50.080;14.418;2022-07-06T07:47:16;99872.72;;;19.73;45.48
73633;BME280;61927;50.080;14.418;2022-07-06T07:49:41;99865.78;;;19.71;46.04
73633;BME280;61927;50.080;14.418;2022-07-06T07:52:07;99874.72;;;19.71;45.45
73633;BME280;61927;50.080;14.418;2022-07-06T07:54:32;99861.81;;;19.75;45.32
73633;BME280;61927;50.080;14.418;2022-07-06T07:56:58;99866.34;;;19.84;44.31
73633;BME280;61927;50.080;14.418;2022-07-06T07:59:23;99863.06;;;19.99;44.63
73633;BME280;61927;50.080;14.418;2022-07-06T08:01:49;99862.63;;;20.04;44.06
73633;BME280;61927;50.080;14.418;2022-07-06T08:04:14;99858.38;;;20.02;44.02
73633;BME280;61927;50.080;14.418;2022-07-06T08:06:40;99864.31;;;20.05;43.61
73633;BME280;61927;50.080;14.418;2022-07-06T08:09:06;99860.31;;;20.19;43.71
73633;BME280;61927;50.080;14.418;2022-07-06T08:11:33;99866.78;;;20.45;43.22
73633;BME280;61927;50.080;14.418;2022-07-06T08:13:59;99865.13;;;20.72;42.04
73633;BME280;61927;50.080;14.418;2022-07-06T08:16:25;99869.81;;;20.70;40.19
73633;BME280;61927;50.080;14.418;2022-07-06T08:18:51;99865.97;;;20.72;40.37
73633;BME280;61927;50.080;14.418;2022-07-06T08:21:17;99867.25;;;20.68;40.69
73633;BME280;61927;50.080;14.418;2022-07-06T08:23:43;99866.72;;;20.64;40.06
73633;BME280;61927;50.080;14.418;2022-07-06T08:26:08;99863.88;;;20.66;38.80
73633;BME280;61927;50.080;14.418;2022-07-06T08:28:34;99864.56;;;20.68;39.70
73633;BME280;61927;50.080;14.418;2022-07-06T08:31:00;99861.38;;;20.82;40.44
73633;BME280;61927;50.080;14.418;2022-07-06T08:33:25;99865.00;;;20.91;40.02
73633;BME280;61927;50.080;14.418;2022-07-06T08:35:51;99862.31;;;20.91;39.93
73633;BME280;61927;50.080;14.418;2022-07-06T08:38:17;99867.41;;;20.94;41.43
73633;BME280;61927;50.080;14.418;2022-07-06T08:40:45;99862.50;;;21.07;41.56
73633;BME280;61927;50.080;14.418;2022-07-06T08:43:11;99865.50;;;21.32;40.48
73633;BME280;61927;50.080;14.418;2022-07-06T08:45:40;99865.50;;;21.49;39.29
73633;BME280;61927;50.080;14.418;2022-07-06T08:48:07;99867.03;;;21.70;38.22
73633;BME280;61927;50.080;14.418;2022-07-06T08:50:35;99866.69;;;21.90;37.71
73633;BME280;61927;50.080;14.418;2022-07-06T08:53:01;99874.41;;;22.03;36.93
73633;BME280;61927;50.080;14.418;2022-07-06T08:55:27;99867.41;;;21.75;37.50
73633;BME280;61927;50.080;14.418;2022-07-06T08:57:54;99876.91;;;21.61;38.03
73633;BME280;61927;50.080;14.418;2022-07-06T09:00:21;99864.94;;;21.46;38.37
73633;BME280;61927;50.080;14.418;2022-07-06T09:02:48;99865.50;;;21.32;39.42
73633;BME280;61927;50.080;14.418;2022-07-06T09:05:16;99864.94;;;21.28;39.09
73633;BME280;61927;50.080;14.418;2022-07-06T09:07:43;99862.25;;;21.28;39.59
73633;BME280;61927;50.080;14.418;2022-07-06T09:10:11;99855.47;;;21.59;38.59
73633;BME280;61927;50.080;14.418;2022-07-06T09:12:37;99863.78;;;21.84;37.69
73633;BME280;61927;50.080;14.418;2022-07-06T09:15:03;99858.91;;;21.87;36.58
73633;BME280;61927;50.080;14.418;2022-07-06T09:17:28;99859.28;;;21.92;37.12
73633;BME280;61927;50.080;14.418;2022-07-06T09:19:55;99853.72;;;22.12;36.84
73633;BME280;61927;50.080;14.418;2022-07-06T09:22:31;99853.50;;;22.31;36.98
73633;BME280;61927;50.080;14.418;2022-07-06T09:25:04;99856.97;;;22.49;36.32
73633;BME280;61927;50.080;14.418;2022-07-06T09:27:30;99850.03;;;22.47;36.67
73633;BME280;61927;50.080;14.418;2022-07-06T09:30:00;99853.84;;;22.70;37.08
73633;BME280;61927;50.080;14.418;2022-07-06T09:32:26;99856.19;;;22.65;36.99
73633;BME280;61927;50.080;14.418;2022-07-06T09:34:52;99855.06;;;22.76;36.82
73633;BME280;61927;50.080;14.418;2022-07-06T09:37:18;99855.84;;;22.60;36.23
73633;BME280;61927;50.080;14.418;2022-07-06T09:39:43;99863.50;;;22.73;36.00
73633;BME280;61927;50.080;14.418;2022-07-06T09:42:10;99856.41;;;22.72;36.37
73633;BME280;61927;50.080;14.418;2022-07-06T09:44:39;99858.75;;;22.67;36.18
73633;BME280;61927;50.080;14.418;2022-07-06T09:47:10;99859.50;;;22.51;36.43
73633;BME280;61927;50.080;14.418;2022-07-06T09:49:37;99861.09;;;22.62;36.80
73633;BME280;61927;50.080;14.418;2022-07-06T09:52:05;99859.25;;;22.36;37.17
73633;BME280;61927;50.080;14.418;2022-07-06T09:54:36;99852.22;;;22.17;37.14
73633;BME280;61927;50.080;14.418;2022-07-06T09:57:02;99854.00;;;22.35;37.28
73633;BME280;61927;50.080;14.418;2022-07-06T09:59:29;99850.38;;;22.52;37.23
73633;BME280;61927;50.080;14.418;2022-07-06T10:02:00;99844.63;;;22.81;35.84
73633;BME280;61927;50.080;14.418;2022-07-06T10:04:28;99849.19;;;22.80;35.10
73633;BME280;61927;50.080;14.418;2022-07-06T10:06:56;99843.44;;;22.83;35.94
73633;BME280;61927;50.080;14.418;2022-07-06T10:09:23;99846.78;;;22.77;35.28
73633;BME280;61927;50.080;14.418;2022-07-06T10:11:51;99845.78;;;22.78;35.17
73633;BME280;61927;50.080;14.418;2022-07-06T10:14:21;99835.53;;;22.90;35.61
73633;BME280;61927;50.080;14.418;2022-07-06T10:16:47;99831.19;;;23.13;35.27
73633;BME280;61927;50.080;14.418;2022-07-06T10:19:14;99840.88;;;23.32;33.84
73633;BME280;61927;50.080;14.418;2022-07-06T10:21:40;99832.25;;;23.53;33.53
73633;BME280;61927;50.080;14.418;2022-07-06T10:24:07;99826.38;;;23.58;33.00
73633;BME280;61927;50.080;14.418;2022-07-06T10:26:34;99827.19;;;23.50;33.31
73633;BME280;61927;50.080;14.418;2022-07-06T10:29:01;99830.56;;;23.36;33.45
73633;BME280;61927;50.080;14.418;2022-07-06T10:31:28;99831.88;;;23.15;34.53
73633;BME280;61927;50.080;14.418;2022-07-06T10:33:59;99836.41;;;23.07;35.16
73633;BME280;61927;50.080;14.418;2022-07-06T10:36:25;99833.84;;;22.89;35.83
73633;BME280;61927;50.080;14.418;2022-07-06T10:38:52;99834.38;;;23.01;34.79
73633;BME280;61927;50.080;14.418;2022-07-06T10:41:18;99834.69;;;22.90;34.31
73633;BME280;61927;50.080;14.418;2022-07-06T10:43:55;99840.69;;;22.75;35.41
73633;BME280;61927;50.080;14.418;2022-07-06T10:46:27;99823.53;;;22.93;35.11
73633;BME280;61927;50.080;14.418;2022-07-06T10:48:54;99835.25;;;23.09;35.58
73633;BME280;61927;50.080;14.418;2022-07-06T10:51:23;99830.19;;;23.14;35.67
73633;BME280;61927;50.080;14.418;2022-07-06T10:54:10;99821.56;;;23.19;35.06
73633;BME280;61927;50.080;14.418;2022-07-06T10:56:40;99831.31;;;22.96;35.30
73633;BME280;61927;50.080;14.418;2022-07-06T10:59:21;99845.19;;;22.59;34.63
73633;BME280;61927;50.080;14.418;2022-07-06T11:02:16;99840.88;;;22.40;34.97
73633;BME280;61927;50.080;14.418;2022-07-06T11:04:43;99843.72;;;22.38;34.65
73633;BME280;61927;50.080;14.418;2022-07-06T11:07:11;99834.47;;;22.49;34.98
73633;BME280;61927;50.080;14.418;2022-07-06T11:09:37;99839.84;;;22.75;34.18
73633;BME280;61927;50.080;14.418;2022-07-06T11:12:19;99828.81;;;22.68;36.38
73633;BME280;61927;50.080;14.418;2022-07-06T11:14:47;99829.63;;;22.61;36.01
73633;BME280;61927;50.080;14.418;2022-07-06T11:17:14;99833.25;;;22.77;36.50
73633;BME280;61927;50.080;14.418;2022-07-06T11:19:50;99821.66;;;22.93;34.92
73633;BME280;61927;50.080;14.418;2022-07-06T11:22:20;99821.84;;;23.00;34.38
73633;BME280;61927;50.080;14.418;2022-07-06T11:24:46;99828.16;;;23.16;33.65
73633;BME280;61927;50.080;14.418;2022-07-06T11:27:11;99821.94;;;23.40;32.35
73633;BME280;61927;50.080;14.418;2022-07-06T11:29:37;99812.78;;;23.49;31.76
73633;BME280;61927;50.080;14.418;2022-07-06T11:32:05;99817.69;;;23.46;32.15
73633;BME280;61927;50.080;14.418;2022-07-06T11:34:36;99822.41;;;23.28;33.02
73633;BME280;61927;50.080;14.418;2022-07-06T11:37:05;99825.78;;;23.13;33.74
73633;BME280;61927;50.080;14.418;2022-07-06T11:39:34;99828.34;;;23.23;33.55
73633;BME280;61927;50.080;14.418;2022-07-06T11:42:01;99829.19;;;23.32;32.41
73633;BME280;61927;50.080;14.418;2022-07-06T11:44:27;99827.34;;;23.32;32.27
73633;BME280;61927;50.080;14.418;2022-07-06T11:46:53;99817.69;;;23.38;32.75
73633;BME280;61927;50.080;14.418;2022-07-06T11:49:21;99819.56;;;23.45;33.08
73633;BME280;61927;50.080;14.418;2022-07-06T11:51:47;99823.44;;;23.43;32.99
73633;BME280;61927;50.080;14.418;2022-07-06T11:54:18;99812.28;;;23.46;33.00
73633;BME280;61927;50.080;14.418;2022-07-06T11:56:53;99816.84;;;23.37;32.49
73633;BME280;61927;50.080;14.418;2022-07-06T11:59:22;99812.28;;;23.46;33.31
73633;BME280;61927;50.080;14.418;2022-07-06T12:01:48;99820.69;;;23.10;33.80
73633;BME280;61927;50.080;14.418;2022-07-06T12:04:14;99826.72;;;22.88;34.68
73633;BME280;61927;50.080;14.418;2022-07-06T12:06:39;99828.50;;;22.71;35.94
73633;BME280;61927;50.080;14.418;2022-07-06T12:09:05;99826.72;;;22.88;35.80
73633;BME280;61927;50.080;14.418;2022-07-06T12:11:33;99834.19;;;22.94;35.13
73633;BME280;61927;50.080;14.418;2022-07-06T12:14:22;99816.13;;;23.11;34.80
73633;BME280;61927;50.080;14.418;2022-07-06T12:16:50;99813.94;;;23.23;33.81
73633;BME280;61927;50.080;14.418;2022-07-06T12:19:16;99818.00;;;23.10;34.13
73633;BME280;61927;50.080;14.418;2022-07-06T12:21:43;99812.50;;;22.86;33.59
73633;BME280;61927;50.080;14.418;2022-07-06T12:24:09;99814.59;;;23.00;33.23
73633;BME280;61927;50.080;14.418;2022-07-06T12:26:39;99811.09;;;23.32;33.61
73633;BME280;61927;50.080;14.418;2022-07-06T12:29:10;99794.19;;;23.63;32.78
73633;BME280;61927;50.080;14.418;2022-07-06T12:31:43;99799.41;;;24.05;32.10
73633;BME280;61927;50.080;14.418;2022-07-06T12:34:18;99796.66;;;24.29;31.83
73633;BME280;61927;50.080;14.418;2022-07-06T12:36:49;99802.63;;;24.00;31.57
73633;BME280;61927;50.080;14.418;2022-07-06T12:39:17;99811.63;;;23.84;32.27
73633;BME280;61927;50.080;14.418;2022-07-06T12:41:53;99804.69;;;23.58;33.15
73633;BME280;61927;50.080;14.418;2022-07-06T12:44:23;99803.16;;;23.63;33.21
73633;BME280;61927;50.080;14.418;2022-07-06T12:46:51;99808.25;;;23.74;33.14
73633;BME280;61927;50.080;14.418;2022-07-06T12:49:26;99801.81;;;23.83;33.58